createdAt,value
2022-12-03T00:00:34.323Z,2.1
2022-12-03T00:02:35.662Z,2.1
2022-12-03T00:04:36.653Z,2.1
2022-12-03T00:06:37.818Z,2.1
2022-12-03T00:14:45.716Z,2.1
2022-12-03T00:20:49.194Z,2
2022-12-03T00:22:50.366Z,2.1
2022-12-03T00:26:52.682Z,2.1
2022-12-03T00:32:59.416Z,2.1
2022-12-03T00:35:00.580Z,2
2022-12-03T00:37:01.728Z,2
2022-12-03T00:39:02.884Z,2
2022-12-03T00:43:08.485Z,2.1
2022-12-03T00:45:09.651Z,2
2022-12-03T00:47:10.925Z,2.1
2022-12-03T00:49:39.314Z,2.1
2022-12-03T00:51:40.485Z,2.1
2022-12-03T00:53:41.632Z,2.1
2022-12-03T00:55:46.062Z,2.1
2022-12-03T00:57:47.208Z,2.1
2022-12-03T00:59:48.374Z,2.1
2022-12-03T01:01:49.574Z,2.1
2022-12-03T01:03:50.700Z,2.1
2022-12-03T01:07:53.129Z,2.1
2022-12-03T01:09:57.423Z,2.1
2022-12-03T01:11:58.736Z,2.1
2022-12-03T01:13:59.866Z,2.2
2022-12-03T01:16:00.968Z,2.2
2022-12-03T01:20:03.207Z,2.2
2022-12-03T01:22:04.404Z,2.2
2022-12-03T01:24:08.838Z,2.2
2022-12-03T01:26:09.974Z,2.2
2022-12-03T01:30:12.303Z,2.2
2022-12-03T01:32:13.471Z,2.2
2022-12-03T01:34:14.640Z,2.2
2022-12-03T01:36:15.773Z,2.2
2022-12-03T01:38:20.214Z,2.2
2022-12-03T01:40:22.917Z,2.2
2022-12-03T01:42:24.068Z,2.2
2022-12-03T01:45:27.423Z,2.2
2022-12-03T01:47:28.554Z,2.2
2022-12-03T01:49:29.743Z,2.3
2022-12-03T01:51:34.192Z,2.3
2022-12-03T01:53:35.362Z,2.3
2022-12-03T01:55:36.477Z,2.3
2022-12-03T01:57:37.656Z,2.2
2022-12-03T01:59:38.822Z,2.3
2022-12-03T02:01:40.079Z,2.3
2022-12-03T02:03:41.237Z,2.3
2022-12-03T02:05:45.571Z,2.3
2022-12-03T02:07:46.820Z,2.3
2022-12-03T02:09:47.912Z,2.3
2022-12-03T02:11:49.096Z,2.3
2022-12-03T02:13:50.246Z,2.3
2022-12-03T02:17:52.560Z,2.3
2022-12-03T02:19:57.003Z,2.3
2022-12-03T02:21:58.177Z,2.4
2022-12-03T02:23:59.361Z,2.4
2022-12-03T02:26:00.477Z,2.3
2022-12-03T02:28:01.659Z,2.3
2022-12-03T02:30:02.800Z,2.3
2022-12-03T02:32:03.973Z,2.3
2022-12-03T02:34:08.408Z,2.4
2022-12-03T02:36:09.556Z,2.4
2022-12-03T02:38:10.726Z,2.4
2022-12-03T02:39:12.919Z,2.4
2022-12-03T02:41:14.104Z,2.4
2022-12-03T02:43:15.292Z,2.4
2022-12-03T02:45:16.421Z,2.4
2022-12-03T02:47:20.830Z,2.4
2022-12-03T02:51:23.163Z,2.4
2022-12-03T02:53:24.350Z,2.4
2022-12-03T02:55:25.507Z,2.4
2022-12-03T02:57:26.651Z,2.4
2022-12-03T02:59:27.830Z,2.4
2022-12-03T03:01:32.402Z,2.4
2022-12-03T03:03:33.433Z,2.4
2022-12-03T03:05:34.597Z,2.4
2022-12-03T03:07:35.807Z,2.4
2022-12-03T03:09:36.948Z,2.4
2022-12-03T03:11:38.093Z,2.4
2022-12-03T03:15:43.665Z,2.4
2022-12-03T03:17:44.841Z,2.4
2022-12-03T03:19:46.022Z,2.4
2022-12-03T03:21:47.174Z,2.4
2022-12-03T03:23:48.363Z,2.4
2022-12-03T03:25:49.502Z,2.4
2022-12-03T03:29:55.092Z,2.4
2022-12-03T03:31:56.339Z,2.4
2022-12-03T03:33:57.414Z,2.4
2022-12-03T03:34:59.636Z,2.4
2022-12-03T03:37:00.808Z,2.4
2022-12-03T03:39:01.986Z,2.5
2022-12-03T03:41:03.192Z,2.5
2022-12-03T03:43:07.597Z,2.4
2022-12-03T03:45:08.747Z,2.4
2022-12-03T03:47:09.887Z,2.4
2022-12-03T03:49:11.069Z,2.4
2022-12-03T03:51:12.220Z,2.4
2022-12-03T03:53:13.394Z,2.4
2022-12-03T03:55:14.545Z,2.4
2022-12-03T03:57:18.977Z,2.4
2022-12-03T03:59:20.170Z,2.4
2022-12-03T04:03:22.478Z,2.4
2022-12-03T04:05:23.654Z,2.4
2022-12-03T04:07:24.855Z,2.4
2022-12-03T04:09:25.988Z,2.4
2022-12-03T04:11:30.382Z,2.4
2022-12-03T04:13:31.532Z,2.4
2022-12-03T04:15:32.707Z,2.4
2022-12-03T04:17:33.842Z,2.4
2022-12-03T04:19:35.021Z,2.3
2022-12-03T04:21:36.178Z,2.3
2022-12-03T04:25:41.773Z,2.4
2022-12-03T04:29:44.116Z,2.4
2022-12-03T04:32:04.645Z,2.3
2022-12-03T04:34:05.812Z,2.3
2022-12-03T04:36:06.971Z,2.3
2022-12-03T04:40:12.552Z,2.3
2022-12-03T04:44:14.873Z,2.4
2022-12-03T04:46:16.146Z,2.4
2022-12-03T04:48:17.217Z,2.4
2022-12-03T04:50:18.403Z,2.4
2022-12-03T04:52:22.851Z,2.4
2022-12-03T04:54:23.992Z,2.3
2022-12-03T04:56:25.150Z,2.3
2022-12-03T04:58:26.299Z,2.3
2022-12-03T05:00:27.460Z,2.3
2022-12-03T05:02:28.720Z,2.3
2022-12-03T05:04:29.837Z,2.4
2022-12-03T05:06:34.256Z,2.4
2022-12-03T05:08:35.434Z,2.3
2022-12-03T05:10:36.590Z,2.3
2022-12-03T05:20:52.742Z,2.3
2022-12-03T05:22:46.812Z,2.3
2022-12-03T05:25:50.193Z,2.3
2022-12-03T05:27:51.371Z,2.3
2022-12-03T05:29:52.593Z,2.3
2022-12-03T05:31:53.707Z,2.3
2022-12-03T05:33:58.118Z,2.4
2022-12-03T05:38:00.475Z,2.3
2022-12-03T05:42:02.783Z,2.3
2022-12-03T05:44:03.943Z,2.3
2022-12-03T05:46:05.195Z,2.3
2022-12-03T05:48:09.534Z,2.3
2022-12-03T05:54:13.029Z,2.2
2022-12-03T05:56:14.178Z,2.2
2022-12-03T05:58:15.366Z,2.2
2022-12-03T06:00:16.552Z,2.2
2022-12-03T06:02:21.140Z,2.3
2022-12-03T06:06:23.297Z,2.3
2022-12-03T06:08:24.483Z,2.2
2022-12-03T06:10:25.636Z,2.2
2022-12-03T06:12:26.796Z,2.2
2022-12-03T06:14:28.022Z,2.2
2022-12-03T06:16:32.495Z,2.2
2022-12-03T06:18:33.590Z,2.2
2022-12-03T06:20:34.731Z,2.2
2022-12-03T06:25:39.281Z,2.1
2022-12-03T06:27:40.454Z,2.1
2022-12-03T06:29:44.893Z,2.1
2022-12-03T06:31:46.106Z,2.1
2022-12-03T06:33:47.192Z,2.1
2022-12-03T06:35:48.369Z,2.1
2022-12-03T06:37:49.548Z,2.1
2022-12-03T06:39:50.703Z,2
2022-12-03T06:41:51.869Z,2
2022-12-03T06:43:56.283Z,2
2022-12-03T06:45:57.465Z,2
2022-12-03T06:47:58.597Z,2
2022-12-03T06:49:59.887Z,1.9
2022-12-03T06:52:00.925Z,2
2022-12-03T06:58:07.697Z,2
2022-12-03T07:02:10.070Z,2
2022-12-03T07:06:12.299Z,2.1
2022-12-03T07:08:13.519Z,2.1
2022-12-03T07:10:14.597Z,2.1
2022-12-03T07:12:19.047Z,2
2022-12-03T07:14:20.211Z,2
2022-12-03T07:16:21.356Z,2
2022-12-03T07:17:23.561Z,2.1
2022-12-03T07:19:30.702Z,2
2022-12-03T07:21:26.071Z,2
2022-12-03T07:23:27.059Z,2.1
2022-12-03T07:25:31.466Z,2
2022-12-03T07:27:32.636Z,2
2022-12-03T07:29:35.332Z,2
2022-12-03T07:31:36.527Z,2
2022-12-03T07:33:37.615Z,2
2022-12-03T07:35:38.750Z,2
2022-12-03T07:37:39.944Z,2
2022-12-03T07:39:44.364Z,2
2022-12-03T07:41:45.492Z,2.1
2022-12-03T07:43:46.668Z,2
2022-12-03T07:45:47.833Z,2
2022-12-03T07:47:48.978Z,2.1
2022-12-03T07:49:50.144Z,2.1
2022-12-03T07:51:51.444Z,2
2022-12-03T07:53:55.701Z,2
2022-12-03T07:55:56.871Z,2
2022-12-03T07:57:58.032Z,2
2022-12-03T07:59:59.193Z,1.9
2022-12-03T08:02:00.411Z,1.9
2022-12-03T08:04:01.635Z,1.9
2022-12-03T08:06:02.666Z,1.9
2022-12-03T08:08:07.136Z,1.9
2022-12-03T08:10:08.229Z,1.9
2022-12-03T08:12:09.359Z,1.9
2022-12-03T08:14:37.832Z,1.8
2022-12-03T08:16:39.090Z,1.8
2022-12-03T08:18:40.171Z,1.9
2022-12-03T08:20:44.572Z,2
2022-12-03T08:22:45.726Z,1.9
2022-12-03T08:24:46.870Z,1.8
2022-12-03T08:26:48.031Z,2
2022-12-03T08:28:49.224Z,1.9
2022-12-03T08:30:50.331Z,1.9
2022-12-03T08:34:56.238Z,1.8
2022-12-03T08:38:58.219Z,1.8
2022-12-03T08:43:00.510Z,1.8
2022-12-03T08:45:01.714Z,1.7
2022-12-03T08:47:02.853Z,1.7
2022-12-03T08:49:07.247Z,1.7
2022-12-03T08:51:08.388Z,1.7
2022-12-03T08:53:09.535Z,1.8
2022-12-03T08:55:10.708Z,1.7
2022-12-03T08:57:11.857Z,1.7
2022-12-03T08:59:12.998Z,1.8
2022-12-03T09:01:14.197Z,1.8
2022-12-03T09:03:18.568Z,1.9
2022-12-03T09:05:19.725Z,1.9
2022-12-03T09:07:20.875Z,1.8
2022-12-03T09:08:23.088Z,1.8
2022-12-03T09:10:24.280Z,1.8
2022-12-03T09:12:25.368Z,1.7
2022-12-03T09:14:26.547Z,1.8
2022-12-03T09:16:31.039Z,1.9
2022-12-03T09:20:33.242Z,1.8
2022-12-03T09:22:34.391Z,1.7
2022-12-03T09:24:35.548Z,1.8
2022-12-03T09:26:36.712Z,1.9
2022-12-03T09:28:37.864Z,1.8
2022-12-03T09:30:42.282Z,1.8
2022-12-03T09:32:43.435Z,1.8
2022-12-03T09:34:44.612Z,1.8
2022-12-03T09:36:45.718Z,1.8
2022-12-03T09:38:48.249Z,1.7
2022-12-03T09:40:48.005Z,1.6
2022-12-03T09:42:49.148Z,1.6
2022-12-03T09:44:53.906Z,1.7
2022-12-03T09:46:54.756Z,1.7
2022-12-03T09:48:55.879Z,1.7
2022-12-03T09:50:57.033Z,1.8
2022-12-03T09:52:58.182Z,1.7
2022-12-03T09:54:59.411Z,1.7
2022-12-03T09:57:00.521Z,1.6
2022-12-03T10:01:06.132Z,1.7
2022-12-03T10:03:07.241Z,1.7
2022-12-03T10:04:09.498Z,1.6
2022-12-03T10:06:10.591Z,1.6
2022-12-03T10:08:11.854Z,1.6
2022-12-03T10:10:12.923Z,1.6
2022-12-03T10:12:17.368Z,1.6
2022-12-03T10:14:18.530Z,1.6
2022-12-03T10:16:19.745Z,1.6
2022-12-03T10:18:20.828Z,1.6
2022-12-03T10:20:21.967Z,1.6
2022-12-03T10:22:23.132Z,1.6
2022-12-03T10:24:24.300Z,1.5
2022-12-03T10:26:29.005Z,1.5
2022-12-03T10:28:29.942Z,1.4
2022-12-03T10:30:31.277Z,1.4
2022-12-03T10:32:32.279Z,1.4
2022-12-03T10:34:33.406Z,1.6
2022-12-03T10:36:34.562Z,1.6
2022-12-03T10:38:35.710Z,1.5
2022-12-03T10:40:40.139Z,1.6
2022-12-03T10:42:41.271Z,1.6
2022-12-03T10:44:42.409Z,1.5
2022-12-03T10:46:43.763Z,1.5
2022-12-03T10:48:44.710Z,1.5
2022-12-03T10:50:45.867Z,1.5
2022-12-03T10:52:47.010Z,1.5
2022-12-03T10:54:52.351Z,1.6
2022-12-03T10:56:53.186Z,1.6
2022-12-03T10:58:54.355Z,1.6
2022-12-03T10:59:56.555Z,1.5
2022-12-03T11:01:57.836Z,1.6
2022-12-03T11:03:58.995Z,1.4
2022-12-03T11:10:05.552Z,1.7
2022-12-03T11:12:06.703Z,1.6
2022-12-03T11:14:07.883Z,1.5
2022-12-03T11:16:09.005Z,1.6
2022-12-03T11:18:10.143Z,1.6
2022-12-03T11:22:15.679Z,1.5
2022-12-03T11:24:16.850Z,1.5
2022-12-03T11:26:19.464Z,1.4
2022-12-03T11:28:19.140Z,1.3
2022-12-03T11:30:20.274Z,1.4
2022-12-03T11:32:21.426Z,1.4
2022-12-03T11:34:22.610Z,1.5
2022-12-03T11:36:47.693Z,1.6
2022-12-03T11:38:28.104Z,1.5
2022-12-03T11:40:31.418Z,1.6
2022-12-03T11:42:30.414Z,1.6
2022-12-03T11:44:31.598Z,1.5
2022-12-03T11:46:32.775Z,1.5
2022-12-03T11:50:40.311Z,1.5
2022-12-03T11:52:39.435Z,1.5
2022-12-03T11:54:40.688Z,1.5
2022-12-03T11:57:09.026Z,1.4
2022-12-03T11:59:10.178Z,1.4
2022-12-03T12:01:11.334Z,1.4
2022-12-03T12:03:16.007Z,1.4
2022-12-03T12:05:16.878Z,1.5
2022-12-03T12:07:18.023Z,1.6
2022-12-03T12:09:19.152Z,1.4
2022-12-03T12:11:20.314Z,1.4
2022-12-03T12:13:21.460Z,1.4
2022-12-03T12:15:22.673Z,1.4
2022-12-03T12:17:26.987Z,1.1
2022-12-03T12:19:28.188Z,1.1
2022-12-03T12:21:29.299Z,1.1
2022-12-03T12:23:30.418Z,1
2022-12-03T12:25:31.660Z,1
2022-12-03T12:27:32.682Z,1
2022-12-03T12:29:34.699Z,1
2022-12-03T12:31:39.172Z,1
2022-12-03T12:33:40.280Z,1
2022-12-03T12:35:41.422Z,0.9
2022-12-03T12:37:47.057Z,0.9
2022-12-03T12:39:43.673Z,1
2022-12-03T12:41:44.810Z,1.2
2022-12-03T12:43:45.938Z,1.3
2022-12-03T12:45:50.342Z,1
2022-12-03T12:47:51.552Z,1
2022-12-03T12:49:53.006Z,1
2022-12-03T12:50:54.833Z,0.9
2022-12-03T12:52:55.962Z,1
2022-12-03T12:55:00.275Z,1.1
2022-12-03T12:56:58.239Z,1.1
2022-12-03T13:05:06.020Z,1.2
2022-12-03T13:07:07.171Z,1.2
2022-12-03T13:09:08.315Z,1.2
2022-12-03T13:11:09.454Z,1.2
2022-12-03T13:13:13.824Z,1.1
2022-12-03T13:17:16.144Z,1.3
2022-12-03T13:19:18.804Z,1.4
2022-12-03T13:23:21.029Z,1.2
2022-12-03T13:27:26.575Z,1.3
2022-12-03T13:29:27.707Z,1.3
2022-12-03T13:31:28.938Z,1.3
2022-12-03T13:35:31.116Z,1.4
2022-12-03T13:39:33.405Z,1.2
2022-12-03T13:41:37.802Z,1.2
2022-12-03T13:43:42.873Z,1.2
2022-12-03T13:45:40.144Z,1.2
2022-12-03T13:46:42.280Z,1.3
2022-12-03T13:48:43.395Z,1.3
2022-12-03T13:50:44.537Z,1.3
2022-12-03T13:52:45.698Z,1.1
2022-12-03T13:54:50.101Z,1.2
2022-12-03T13:56:51.253Z,1.2
2022-12-03T13:58:52.383Z,1.3
2022-12-03T14:00:53.580Z,1.3
2022-12-03T14:05:00.074Z,1.3
2022-12-03T14:06:56.932Z,1.2
2022-12-03T14:09:01.361Z,1.2
2022-12-03T14:15:04.796Z,1.4
2022-12-03T14:17:06.075Z,1.2
2022-12-03T14:19:07.064Z,1.3
2022-12-03T14:21:08.183Z,1.2
2022-12-03T14:29:15.977Z,1.1
2022-12-03T14:31:17.152Z,1
2022-12-03T14:33:18.215Z,1
2022-12-03T14:41:26.032Z,0.9
2022-12-03T14:42:28.243Z,1.1
2022-12-03T14:50:36.000Z,0.9
2022-12-03T14:52:37.132Z,0.8
2022-12-03T14:54:38.401Z,0.9
2022-12-03T14:56:39.411Z,0.9
2022-12-03T15:04:47.194Z,0.8
2022-12-03T15:06:48.315Z,0.8
2022-12-03T15:10:50.567Z,0.8
2022-12-03T15:12:51.702Z,0.8
2022-12-03T15:14:52.945Z,0.8
2022-12-03T15:16:54.112Z,0.8
2022-12-03T15:18:58.377Z,0.8
2022-12-03T15:20:59.497Z,0.8
2022-12-03T15:23:00.627Z,0.9
2022-12-03T15:27:02.891Z,0.8
2022-12-03T15:29:04.030Z,0.8
2022-12-03T15:31:05.189Z,0.8
2022-12-03T15:33:09.548Z,0.7
2022-12-03T15:35:10.677Z,0.7
2022-12-03T15:37:11.811Z,0.7
2022-12-03T15:45:46.988Z,0.7
2022-12-03T15:53:51.404Z,0.8
2022-12-03T15:55:52.561Z,0.7
2022-12-03T15:59:58.057Z,0.6
2022-12-03T16:01:59.249Z,0.6
2022-12-03T16:04:00.298Z,0.6
2022-12-03T16:06:01.449Z,0.6
2022-12-03T16:08:02.671Z,0.6
2022-12-03T16:10:03.785Z,0.6
2022-12-03T16:12:04.859Z,0.6
2022-12-03T16:14:09.217Z,0.6
2022-12-03T16:16:10.420Z,0.6
2022-12-03T16:18:11.507Z,0.6
2022-12-03T16:20:12.605Z,0.6
2022-12-03T16:22:13.737Z,0.5
2022-12-03T16:24:14.852Z,0.5
2022-12-03T16:26:15.995Z,0.5
2022-12-03T16:28:20.345Z,0.6
2022-12-03T16:30:21.503Z,0.6
2022-12-03T16:32:22.608Z,0.6
2022-12-03T16:33:27.853Z,0.6
2022-12-03T16:35:25.966Z,0.6
2022-12-03T16:37:27.064Z,0.6
2022-12-03T16:41:32.561Z,0.7
2022-12-03T16:45:34.813Z,0.6
2022-12-03T16:51:38.190Z,0.6
2022-12-03T16:53:39.317Z,0.5
2022-12-03T16:55:43.704Z,0.5
2022-12-03T16:59:45.953Z,0.5
2022-12-03T17:01:47.140Z,0.5
2022-12-03T17:03:48.206Z,0.5
2022-12-03T17:05:49.323Z,0.5
2022-12-03T17:07:50.504Z,0.5
2022-12-03T17:09:55.042Z,0.4
2022-12-03T17:11:55.910Z,0.5
2022-12-03T17:13:57.040Z,0.5
2022-12-03T17:15:58.255Z,0.5
2022-12-03T17:17:59.309Z,0.5
2022-12-03T17:20:00.461Z,0.5
2022-12-03T17:22:01.562Z,0.6
2022-12-03T17:24:05.925Z,0.7
2022-12-03T17:26:07.055Z,0.7
2022-12-03T17:28:08.195Z,0.7
2022-12-03T17:31:11.528Z,0.6
2022-12-03T17:33:12.595Z,0.5
2022-12-03T17:35:13.734Z,0.5
2022-12-03T17:37:18.201Z,0.6
2022-12-03T17:39:19.228Z,0.6
2022-12-03T17:41:20.383Z,0.6
2022-12-03T17:43:21.457Z,0.5
2022-12-03T17:45:22.588Z,0.5
2022-12-03T17:51:29.224Z,0.5
2022-12-03T17:55:38.544Z,0.5
2022-12-03T17:57:32.589Z,0.4
2022-12-03T17:59:33.694Z,0.4
2022-12-03T18:05:40.292Z,0.4
2022-12-03T18:07:41.536Z,0.4
2022-12-03T18:11:43.697Z,0.4
2022-12-03T18:15:45.973Z,0.4
2022-12-03T18:17:47.030Z,0.4
2022-12-03T18:19:51.385Z,0.4
2022-12-03T18:21:52.495Z,0.4
2022-12-03T18:23:53.619Z,0.3
2022-12-03T18:26:56.937Z,0.3
2022-12-03T18:28:58.039Z,0.3
2022-12-03T18:30:59.287Z,0.3
2022-12-03T18:33:03.574Z,0.3
2022-12-03T18:35:04.663Z,0.3
2022-12-03T18:37:05.771Z,0.2
2022-12-03T18:39:06.890Z,0.2
2022-12-03T18:41:08.017Z,0.3
2022-12-03T18:43:09.137Z,0.3
2022-12-03T18:45:10.253Z,0.3
2022-12-03T18:51:16.834Z,0.3
2022-12-03T18:53:17.988Z,0.3
2022-12-03T18:55:19.104Z,0.2
2022-12-03T18:57:20.213Z,0.2
2022-12-03T18:59:21.338Z,0.3
2022-12-03T19:03:26.916Z,0.2
2022-12-03T19:05:27.957Z,0.2
2022-12-03T19:07:29.110Z,0.2
2022-12-03T19:09:31.726Z,0.2
2022-12-03T19:11:32.793Z,0.2
2022-12-03T19:13:33.944Z,0.2
2022-12-03T19:15:38.286Z,0.2
2022-12-03T19:17:39.389Z,0.2
2022-12-03T19:19:40.541Z,0.2
2022-12-03T19:22:08.998Z,0.2
2022-12-03T19:24:24.142Z,0.2
2022-12-03T19:26:11.264Z,0.2
2022-12-03T19:28:15.590Z,0.2
2022-12-03T19:32:17.815Z,0.2
2022-12-03T19:34:18.948Z,0.2
2022-12-03T19:38:21.134Z,0.2
2022-12-03T19:42:26.619Z,0.2
2022-12-03T19:44:27.708Z,0.2
2022-12-03T19:46:28.810Z,0.2
2022-12-03T19:50:31.054Z,0.2
2022-12-03T19:52:32.152Z,0.2
2022-12-03T19:54:33.242Z,0.2
2022-12-03T19:56:37.585Z,0.2
2022-12-03T19:58:38.712Z,0.1
2022-12-03T20:00:39.814Z,0.2
2022-12-03T20:02:41.001Z,0.2
2022-12-03T20:04:42.020Z,0.2
2022-12-03T20:06:43.127Z,0.2
2022-12-03T20:08:44.234Z,0.1
2022-12-03T20:10:48.723Z,0.2
2022-12-03T20:12:49.735Z,0.2
2022-12-03T20:14:50.820Z,0.1
2022-12-03T20:22:02.111Z,0.1
2022-12-03T20:24:00.695Z,0.1
2022-12-03T20:26:01.813Z,0.1
2022-12-03T20:28:02.945Z,0
2022-12-03T20:30:04.037Z,0.1
2022-12-03T20:32:05.294Z,0.2
2022-12-03T20:34:06.256Z,0.2
2022-12-03T20:38:11.732Z,0.1
2022-12-03T20:40:12.825Z,0.1
2022-12-03T20:42:13.929Z,0.1
2022-12-03T20:44:15.033Z,0.1
2022-12-03T20:50:18.389Z,0.1
2022-12-03T20:52:22.750Z,0.1
2022-12-03T20:58:26.075Z,0.1
2022-12-03T21:00:27.211Z,0.1
2022-12-03T21:02:28.377Z,0.1
2022-12-03T21:04:29.397Z,0.1
2022-12-03T21:06:33.760Z,0.1
2022-12-03T21:10:35.990Z,0.1
2022-12-03T21:11:38.166Z,0
2022-12-03T21:13:39.286Z,0
2022-12-03T21:15:40.391Z,0
2022-12-03T21:17:41.597Z,0.1
2022-12-03T21:19:45.888Z,0
2022-12-03T21:21:47.019Z,0
2022-12-03T21:23:48.112Z,0
2022-12-03T21:25:49.218Z,0
2022-12-03T21:27:50.319Z,0
2022-12-03T21:29:51.475Z,0
2022-12-03T21:31:52.541Z,0
2022-12-03T21:33:56.911Z,0
2022-12-03T21:35:58.019Z,0
2022-12-03T21:37:59.112Z,0
2022-12-03T21:40:00.224Z,-0.1
2022-12-03T21:42:18.764Z,0
2022-12-03T21:44:02.421Z,0
2022-12-03T21:46:03.618Z,0
2022-12-03T21:48:07.900Z,-0.1
2022-12-03T21:50:08.991Z,-0.1
2022-12-03T21:52:10.089Z,-0.1
2022-12-03T21:54:11.218Z,0
2022-12-03T21:56:12.277Z,0
2022-12-03T21:58:13.421Z,0
2022-12-03T22:00:14.521Z,0
2022-12-03T22:02:18.910Z,-0.1
2022-12-03T22:04:19.975Z,0
2022-12-03T22:06:21.123Z,0
2022-12-03T22:07:23.295Z,0
2022-12-03T22:09:26.704Z,0
2022-12-03T22:15:30.954Z,0
2022-12-03T22:17:32.049Z,0
2022-12-03T22:19:33.176Z,0
2022-12-03T22:25:36.483Z,0
2022-12-03T22:27:37.596Z,0
2022-12-03T22:29:41.951Z,0
2022-12-03T22:31:43.062Z,0.1
2022-12-03T22:35:45.270Z,0.1
2022-12-03T22:37:46.396Z,0.1
2022-12-03T22:39:47.498Z,0.1
2022-12-03T22:41:48.595Z,0.1
2022-12-03T22:45:54.155Z,0.1
2022-12-03T22:47:55.204Z,0.1
2022-12-03T22:49:56.515Z,0.1
2022-12-03T22:51:57.364Z,0.1
2022-12-03T22:53:58.495Z,0.1
2022-12-03T22:55:59.607Z,0.1
2022-12-03T22:58:03.982Z,0.1
2022-12-03T23:00:05.187Z,0.2
2022-12-03T23:02:06.177Z,0.2
2022-12-03T23:04:32.655Z,0.1
2022-12-03T23:06:33.644Z,0.1
2022-12-03T23:08:34.741Z,0.1
2022-12-03T23:10:39.117Z,0.1
2022-12-03T23:12:40.206Z,0.1
2022-12-03T23:14:41.333Z,0.1
2022-12-03T23:16:42.406Z,0.1
2022-12-03T23:18:43.530Z,0.1
2022-12-03T23:20:44.621Z,0.1
2022-12-03T23:22:45.737Z,0.1
2022-12-03T23:24:50.119Z,0.1
2022-12-03T23:26:51.208Z,0.1
2022-12-03T23:28:52.328Z,0.1
2022-12-03T23:30:53.484Z,0.1
2022-12-03T23:32:54.553Z,0.2
2022-12-03T23:34:55.659Z,0.2
2022-12-03T23:36:56.752Z,0.1
2022-12-03T23:39:01.135Z,0.1
2022-12-03T23:41:02.350Z,0.2
2022-12-03T23:43:03.323Z,0.2
2022-12-03T23:45:04.452Z,0.1
2022-12-03T23:47:05.633Z,0.1
2022-12-03T23:49:06.655Z,0.2
2022-12-03T23:51:07.778Z,0.2
2022-12-03T23:53:12.117Z,0.2
2022-12-03T23:55:13.259Z,0.2
2022-12-03T23:57:14.366Z,0.2
2022-12-03T23:58:16.571Z,0.2
